Aérodrome :
LOGIN :

S'inscrire | Disclaimer

   EN    FR    IT 

 










Légende :    VFR   VFR Marginal   IFR   IFR Intensif   IFR Très Intensif
Visi : 
Plafond : 
>= 8 km
>= 3000ft
5 à 8 km
1000 à 3000 ft
1500m à 5 km
500 à 1000 ft
800 à 1500m
200 à 500 ft
< 800m
< 200 ft
Symboles :   Orages  Brouillard  Fortes neiges  Fortes précipitations  Vent > 20 kt
SIGMETs :   Divers  Orages  Givrage  Turbulence  Onde Orograph.  Cendres Volcan.







- Altitude de l'aérodrome : 1213 ft
- Code IATA : SCQ


LEST - Santiago de Compostela

DERNIER METAR :
  • 251000Z 05011KT 010V090 9999 BKN013 13/10 Q1024 WS ALL RWY TEMPO SCT013

METARs EXPIRÉS :
  • 250930Z 04013KT 010V080 9999 BKN013 13/10 Q1024 WS ALL RWY TEMPO SCT013
  • 250900Z 05011KT 360V100 9999 BKN010 13/10 Q1023 TEMPO SCT010
  • 250830Z 04010KT 360V080 9999 BKN009 12/10 Q1023 NOSIG
  • 250800Z 08006KT 030V140 9999 BKN009 11/10 Q1023 NOSIG
  • 250730Z 06007KT 010V100 9999 BKN005 11/10 Q1023 NOSIG

TAF COR TAF LEST
Valide du 25 à 06h jusqu'au 26 à 06h UTC


250545Z 2506/2606 03009KT 9999 BKN010 TX15/2514Z TN07/2506Z
TEMPO 2506/2513 BKN004
PROB40
TEMPO 2506/2507 3000 BR BKN002
BECMG 2514/2517 SCT010 BKN018
TEMPO 2600/2606 3000 BR
TEMPO 2512/2522 03015G25KT
Pas de NOTAMs connus pour ce terrain.



MET'MAP, la Météo Aéronautique d'un coup d'oeil ! - Copyright ORBIFLY Décembre 2007 - Disclaimer

ORBIFLY MET'MAP TEAM :

Programmation & Développement : Alexandra Zaïnal
Conception & Développement : Baudouin d'Aumeries
Co-Programmation & Développement : Marc-Olivier Méhu
Soutien technique & logistique : Manuel Goepfert

Contact : metmap@orbifly.com




SOURCES & CREDITS :

   NOAA